createdAt,value
2023-02-16T00:00:06.865Z,39.60
2023-02-16T00:02:10.050Z,39.70
2023-02-16T00:04:31.816Z,39.60
2023-02-16T00:06:33.408Z,39.60
2023-02-16T00:08:35.036Z,39.60
2023-02-16T00:10:38.710Z,39.60
2023-02-16T00:12:59.188Z,39.60
2023-02-16T00:15:00.842Z,39.60
2023-02-16T00:17:03.004Z,39.50
2023-02-16T00:19:19.505Z,39.60
2023-02-16T00:21:21.556Z,39.50
2023-02-16T00:23:23.176Z,39.60
2023-02-16T00:25:25.945Z,39.60
2023-02-16T00:27:27.577Z,39.50
2023-02-16T00:29:32.655Z,39.60
2023-02-16T00:31:34.539Z,39.50
2023-02-16T00:33:36.201Z,39.60
2023-02-16T00:35:37.849Z,39.60
2023-02-16T00:37:39.460Z,39.60
2023-02-16T00:39:43.046Z,39.60
2023-02-16T00:41:50.818Z,39.60
2023-02-16T00:43:54.832Z,39.60
2023-02-16T00:45:57.158Z,39.70
2023-02-16T00:47:58.888Z,39.70
2023-02-16T00:50:00.540Z,39.60
2023-02-16T00:52:02.873Z,39.70
2023-02-16T00:54:04.557Z,39.60
2023-02-16T00:56:09.002Z,39.60
2023-02-16T00:58:26.585Z,39.60
2023-02-16T01:00:34.448Z,39.60
2023-02-16T01:02:36.336Z,39.60
2023-02-16T01:04:38.204Z,39.60
2023-02-16T01:06:58.447Z,39.60
2023-02-16T01:09:39.622Z,39.60
2023-02-16T01:11:41.234Z,39.70
2023-02-16T01:13:51.203Z,39.60
2023-02-16T01:15:53.044Z,39.60
2023-02-16T01:17:54.760Z,39.60
2023-02-16T01:19:56.525Z,39.70
2023-02-16T01:21:58.157Z,39.60
2023-02-16T01:24:00.649Z,39.60
2023-02-16T01:26:02.358Z,39.60
2023-02-16T01:28:04.367Z,39.60
2023-02-16T01:30:08.135Z,39.60
2023-02-16T01:32:12.420Z,39.70
2023-02-16T01:34:14.691Z,39.70
2023-02-16T01:36:33.964Z,39.70
2023-02-16T01:38:35.620Z,39.70
2023-02-16T01:40:44.318Z,39.60
2023-02-16T01:42:53.065Z,40.40
2023-02-16T01:45:01.926Z,39.70
2023-02-16T01:47:29.166Z,39.70
2023-02-16T01:49:30.828Z,39.70
2023-02-16T01:51:49.417Z,39.70
2023-02-16T01:54:04.525Z,39.70
2023-02-16T01:56:16.033Z,39.70
2023-02-16T01:58:29.537Z,39.70
2023-02-16T02:00:49.532Z,39.70
2023-02-16T02:03:15.658Z,39.70
2023-02-16T02:05:36.875Z,39.70
2023-02-16T02:07:47.623Z,39.70
2023-02-16T02:10:22.552Z,39.70
2023-02-16T02:12:40.249Z,39.70
2023-02-16T02:14:42.171Z,39.70
2023-02-16T02:16:57.828Z,39.70
2023-02-16T02:18:59.705Z,39.70
2023-02-16T02:21:48.839Z,39.70
2023-02-16T02:23:59.907Z,40.30
2023-02-16T02:26:04.502Z,39.70
2023-02-16T02:28:25.008Z,39.70
2023-02-16T02:30:42.042Z,39.70
2023-02-16T02:33:06.775Z,39.70
2023-02-16T02:35:11.330Z,39.70
2023-02-16T02:37:34.233Z,39.70
2023-02-16T02:39:45.979Z,39.70
2023-02-16T02:42:05.231Z,39.60
2023-02-16T02:44:09.749Z,39.60
2023-02-16T02:46:25.377Z,39.70
2023-02-16T02:48:32.483Z,39.70
2023-02-16T02:51:06.878Z,39.60
2023-02-16T02:53:13.576Z,39.60
2023-02-16T02:55:34.272Z,39.60
2023-02-16T02:58:02.001Z,39.60
2023-02-16T03:00:31.659Z,39.60
2023-02-16T03:02:35.771Z,39.60
2023-02-16T03:04:37.453Z,39.60
2023-02-16T03:06:44.012Z,39.60
2023-02-16T03:08:49.374Z,39.60
2023-02-16T03:11:34.547Z,39.60
2023-02-16T03:13:41.682Z,39.80
2023-02-16T03:15:46.584Z,39.60
2023-02-16T03:18:07.018Z,39.60
2023-02-16T03:20:31.527Z,39.60
2023-02-16T03:22:53.557Z,39.60
2023-02-16T03:25:14.097Z,39.60
2023-02-16T03:27:40.207Z,39.60
2023-02-16T03:29:42.217Z,39.60
2023-02-16T03:31:46.077Z,39.60
2023-02-16T03:33:54.457Z,39.60
2023-02-16T03:35:57.655Z,39.60
2023-02-16T03:37:59.754Z,39.60
2023-02-16T03:40:20.218Z,39.60
2023-02-16T03:42:22.984Z,39.60
2023-02-16T03:44:25.238Z,39.60
2023-02-16T03:46:27.010Z,39.50
2023-02-16T03:48:28.602Z,39.50
2023-02-16T03:50:30.613Z,39.60
2023-02-16T03:52:32.209Z,39.50
2023-02-16T03:54:33.866Z,39.50
2023-02-16T03:56:35.513Z,39.50
2023-02-16T03:58:37.231Z,39.50
2023-02-16T04:00:39.205Z,39.50
2023-02-16T04:02:40.891Z,39.50
2023-02-16T04:04:42.542Z,39.50
2023-02-16T04:06:44.226Z,39.50
2023-02-16T04:08:45.894Z,39.50
2023-02-16T04:10:47.692Z,39.50
2023-02-16T04:12:49.397Z,39.50
2023-02-16T04:14:50.994Z,39.50
2023-02-16T04:16:52.763Z,39.50
2023-02-16T04:18:54.429Z,39.50
2023-02-16T04:20:56.082Z,39.40
2023-02-16T04:22:58.362Z,39.40
2023-02-16T04:25:00.157Z,39.40
2023-02-16T04:27:01.822Z,39.40
2023-02-16T04:29:03.565Z,39.40
2023-02-16T04:31:05.759Z,39.40
2023-02-16T04:33:07.650Z,39.40
2023-02-16T04:35:10.174Z,39.40
2023-02-16T04:37:11.848Z,39.30
2023-02-16T04:39:13.538Z,39.20
2023-02-16T04:41:15.124Z,39.20
2023-02-16T04:43:16.807Z,39.20
2023-02-16T04:45:18.473Z,39.10
2023-02-16T04:47:20.154Z,39.10
2023-02-16T04:49:21.901Z,39.70
2023-02-16T04:51:23.790Z,39.00
2023-02-16T04:53:25.434Z,39.10
2023-02-16T04:55:27.278Z,39.10
2023-02-16T04:57:28.912Z,39.00
2023-02-16T04:59:30.751Z,39.00
2023-02-16T05:01:32.433Z,39.00
2023-02-16T05:03:34.276Z,39.00
2023-02-16T05:05:35.865Z,38.90
2023-02-16T05:07:37.605Z,39.70
2023-02-16T05:09:39.246Z,39.00
2023-02-16T05:11:59.760Z,38.90
2023-02-16T05:14:20.292Z,38.90
2023-02-16T05:16:25.030Z,38.90
2023-02-16T05:18:26.679Z,38.90
2023-02-16T05:20:48.501Z,39.80
2023-02-16T05:22:50.095Z,40.50
2023-02-16T05:24:52.160Z,41.10
2023-02-16T05:26:53.834Z,41.20
2023-02-16T05:28:56.210Z,41.10
2023-02-16T05:30:57.860Z,41.20
2023-02-16T05:32:59.597Z,41.20
2023-02-16T05:35:01.246Z,41.20
2023-02-16T05:37:02.925Z,41.10
2023-02-16T05:39:04.603Z,41.10
2023-02-16T05:41:06.442Z,41.10
2023-02-16T05:43:08.173Z,41.10
2023-02-16T05:45:10.153Z,41.10
2023-02-16T05:47:12.540Z,41.80
2023-02-16T05:49:15.633Z,41.20
2023-02-16T05:51:17.833Z,41.10
2023-02-16T05:53:19.483Z,41.10
2023-02-16T05:55:21.106Z,41.10
2023-02-16T05:57:22.798Z,41.10
2023-02-16T05:59:24.441Z,41.00
2023-02-16T06:01:27.552Z,41.00
2023-02-16T06:03:29.664Z,41.00
2023-02-16T06:05:31.372Z,40.90
2023-02-16T06:07:33.038Z,40.90
2023-02-16T06:09:34.686Z,41.00
2023-02-16T06:11:36.343Z,41.00
2023-02-16T06:13:38.020Z,40.50
2023-02-16T06:15:39.703Z,40.20
2023-02-16T06:17:41.494Z,40.40
2023-02-16T06:19:43.131Z,40.30
2023-02-16T06:21:51.349Z,40.20
2023-02-16T06:23:53.311Z,40.30
2023-02-16T06:25:54.970Z,40.70
2023-02-16T06:27:56.926Z,40.80
2023-02-16T06:29:58.611Z,41.50
2023-02-16T06:32:00.539Z,41.10
2023-02-16T06:34:03.714Z,41.20
2023-02-16T06:36:06.161Z,41.00
2023-02-16T06:38:07.802Z,41.30
2023-02-16T06:40:10.628Z,41.50
2023-02-16T06:42:12.273Z,41.30
2023-02-16T06:44:16.423Z,41.30
2023-02-16T06:46:18.075Z,40.00
2023-02-16T06:48:19.845Z,39.70
2023-02-16T06:50:21.527Z,40.40
2023-02-16T06:52:23.188Z,40.90
2023-02-16T06:54:24.803Z,40.60
2023-02-16T06:56:26.471Z,40.50
2023-02-16T06:58:28.142Z,40.50
2023-02-16T07:00:30.189Z,40.40
2023-02-16T07:02:31.935Z,40.40
2023-02-16T07:04:33.586Z,40.30
2023-02-16T07:06:35.246Z,40.20
2023-02-16T07:08:37.021Z,40.10
2023-02-16T07:10:50.228Z,40.10
2023-02-16T07:12:52.121Z,40.10
2023-02-16T07:14:53.819Z,40.10
2023-02-16T07:16:57.441Z,39.90
2023-02-16T07:19:00.150Z,39.90
2023-02-16T07:21:02.129Z,39.90
2023-02-16T07:23:04.377Z,39.90
2023-02-16T07:25:06.431Z,39.80
2023-02-16T07:27:08.628Z,39.80
2023-02-16T07:29:10.316Z,39.80
2023-02-16T07:31:15.166Z,39.70
2023-02-16T07:33:18.081Z,39.70
2023-02-16T07:35:19.973Z,39.60
2023-02-16T07:37:21.621Z,39.70
2023-02-16T07:39:23.385Z,39.70
2023-02-16T07:41:25.269Z,39.60
2023-02-16T07:43:27.045Z,39.50
2023-02-16T07:45:29.142Z,39.50
2023-02-16T07:47:30.834Z,40.10
2023-02-16T07:49:32.508Z,39.50
2023-02-16T07:51:34.963Z,39.40
2023-02-16T07:53:36.645Z,40.10
2023-02-16T07:55:42.925Z,39.30
2023-02-16T07:57:44.612Z,39.30
2023-02-16T07:59:46.289Z,39.20
2023-02-16T08:01:47.895Z,39.20
2023-02-16T08:03:49.911Z,39.10
2023-02-16T08:05:51.569Z,39.10
2023-02-16T08:07:53.278Z,39.10
2023-02-16T08:09:54.949Z,39.00
2023-02-16T08:11:56.569Z,39.00
2023-02-16T08:14:01.084Z,38.90
2023-02-16T08:16:03.230Z,38.90
2023-02-16T08:18:05.748Z,38.90
2023-02-16T08:20:09.694Z,38.90
2023-02-16T08:22:12.176Z,37.50
2023-02-16T08:24:13.785Z,38.60
2023-02-16T08:26:17.677Z,38.60
2023-02-16T08:28:19.356Z,38.60
2023-02-16T08:30:24.953Z,38.70
2023-02-16T08:32:27.679Z,38.80
2023-02-16T08:34:30.370Z,39.40
2023-02-16T08:36:34.584Z,38.80
2023-02-16T08:38:36.741Z,39.00
2023-02-16T08:40:38.414Z,39.30
2023-02-16T08:42:40.510Z,39.30
2023-02-16T08:44:42.312Z,39.40
2023-02-16T08:46:46.595Z,39.20
2023-02-16T08:48:48.612Z,39.20
2023-02-16T08:50:56.225Z,39.10
2023-02-16T08:52:58.330Z,38.90
2023-02-16T08:55:00.045Z,38.80
2023-02-16T08:57:02.932Z,38.80
2023-02-16T08:59:04.735Z,38.70
2023-02-16T09:01:08.165Z,38.80
2023-02-16T09:03:09.841Z,38.70
2023-02-16T09:05:11.558Z,38.70
2023-02-16T09:07:13.742Z,38.70
2023-02-16T09:09:15.861Z,38.80
2023-02-16T09:11:17.611Z,38.70
2023-02-16T09:13:19.674Z,38.80
2023-02-16T09:15:22.268Z,38.70
2023-02-16T09:17:24.650Z,38.70
2023-02-16T09:19:26.345Z,38.70
2023-02-16T09:21:32.257Z,38.60
2023-02-16T09:23:35.720Z,38.90
2023-02-16T09:25:39.083Z,38.90
2023-02-16T09:27:40.741Z,38.70
2023-02-16T09:29:43.832Z,39.00
2023-02-16T09:31:45.754Z,38.60
2023-02-16T09:33:47.587Z,38.90
2023-02-16T09:35:49.606Z,38.80
2023-02-16T09:37:51.352Z,38.90
2023-02-16T09:39:52.959Z,39.00
2023-02-16T09:42:19.273Z,39.10
2023-02-16T09:44:49.188Z,39.30
2023-02-16T09:46:51.545Z,39.20
2023-02-16T09:48:53.906Z,39.00
2023-02-16T09:50:57.520Z,39.00
2023-02-16T09:53:13.812Z,39.00
2023-02-16T09:55:17.991Z,38.30
2023-02-16T09:57:41.783Z,38.20
2023-02-16T10:00:11.649Z,38.20
2023-02-16T10:02:27.951Z,38.10
2023-02-16T10:04:47.477Z,38.20
2023-02-16T10:07:06.089Z,38.10
2023-02-16T10:09:16.432Z,37.50
2023-02-16T10:11:46.445Z,37.50
2023-02-16T10:13:54.132Z,37.50
2023-02-16T10:15:57.957Z,37.80
2023-02-16T10:18:15.147Z,37.90
2023-02-16T10:20:25.801Z,38.10
2023-02-16T10:22:44.344Z,38.40
2023-02-16T10:25:00.453Z,38.40
2023-02-16T10:27:10.905Z,38.60
2023-02-16T10:29:18.959Z,38.60
2023-02-16T10:31:39.001Z,38.20
2023-02-16T10:33:43.165Z,38.20
2023-02-16T10:35:51.341Z,38.40
2023-02-16T10:38:07.993Z,39.30
2023-02-16T10:40:12.600Z,39.90
2023-02-16T10:42:43.737Z,39.50
2023-02-16T10:44:58.488Z,38.50
2023-02-16T10:47:04.480Z,37.90
2023-02-16T10:49:13.048Z,39.10
2023-02-16T10:51:17.796Z,40.80
2023-02-16T10:53:31.737Z,41.30
2023-02-16T10:55:33.363Z,40.40
2023-02-16T10:57:35.279Z,39.00
2023-02-16T10:59:42.647Z,38.60
2023-02-16T11:01:47.664Z,38.80
2023-02-16T11:03:51.918Z,39.10
2023-02-16T11:05:53.804Z,39.30
2023-02-16T11:07:57.803Z,39.60
2023-02-16T11:10:03.333Z,39.40
2023-02-16T11:12:25.252Z,39.40
2023-02-16T11:14:30.816Z,39.60
2023-02-16T11:16:33.170Z,39.50
2023-02-16T11:18:39.052Z,39.70
2023-02-16T11:20:45.037Z,39.70
2023-02-16T11:22:47.187Z,39.60
2023-02-16T11:24:48.858Z,39.60
2023-02-16T11:27:19.900Z,39.60
2023-02-16T11:29:21.636Z,39.70
2023-02-16T11:31:33.359Z,39.70
2023-02-16T11:33:35.953Z,39.70
2023-02-16T11:35:43.030Z,39.60
2023-02-16T11:37:45.026Z,39.70
2023-02-16T11:39:56.099Z,39.70
2023-02-16T11:41:58.672Z,39.70
2023-02-16T11:44:02.747Z,39.70
2023-02-16T11:46:12.744Z,39.70
2023-02-16T11:48:24.700Z,39.60
2023-02-16T11:50:33.450Z,39.60
2023-02-16T11:52:35.591Z,39.60
2023-02-16T11:54:37.269Z,39.60
2023-02-16T11:56:40.016Z,39.60
2023-02-16T11:58:41.805Z,39.60
2023-02-16T12:01:08.632Z,39.70
2023-02-16T12:03:21.559Z,39.70
2023-02-16T12:05:38.968Z,39.70
2023-02-16T12:08:03.720Z,39.70
2023-02-16T12:10:43.085Z,39.70
2023-02-16T12:13:15.838Z,39.80
2023-02-16T12:15:51.805Z,39.80
2023-02-16T12:18:27.994Z,40.00
2023-02-16T12:20:54.145Z,40.10
2023-02-16T12:23:13.343Z,40.10
2023-02-16T12:25:36.799Z,40.20
2023-02-16T12:28:22.432Z,40.30
2023-02-16T12:30:38.962Z,40.30
2023-02-16T12:33:17.061Z,40.40
2023-02-16T12:35:44.587Z,40.50
2023-02-16T12:37:58.740Z,41.10
2023-02-16T12:40:31.561Z,41.00
2023-02-16T12:42:52.799Z,41.00
2023-02-16T12:45:01.509Z,41.00
2023-02-16T12:47:08.327Z,41.00
2023-02-16T12:49:27.423Z,41.10
2023-02-16T12:51:36.909Z,41.10
2023-02-16T12:53:46.340Z,41.10
2023-02-16T12:56:01.077Z,41.20
2023-02-16T12:58:23.477Z,41.10
2023-02-16T13:00:36.876Z,41.10
2023-02-16T13:02:47.042Z,41.10
2023-02-16T13:04:54.446Z,41.10
2023-02-16T13:07:03.318Z,41.10
2023-02-16T13:09:24.919Z,41.10
2023-02-16T13:11:50.863Z,41.10
2023-02-16T13:13:56.813Z,41.00
2023-02-16T13:16:28.920Z,40.90
2023-02-16T13:18:35.958Z,40.90
2023-02-16T13:20:43.730Z,41.50
2023-02-16T13:23:13.561Z,40.80
2023-02-16T13:25:41.963Z,40.80
2023-02-16T13:27:49.348Z,41.60
2023-02-16T13:29:52.505Z,40.80
2023-02-16T13:32:24.901Z,40.90
2023-02-16T13:35:04.067Z,40.70
2023-02-16T13:37:21.885Z,40.80
2023-02-16T13:39:41.273Z,40.80
2023-02-16T13:42:19.314Z,40.80
2023-02-16T13:44:25.627Z,40.80
2023-02-16T13:46:34.222Z,40.80
2023-02-16T13:48:46.401Z,40.70
2023-02-16T13:50:56.358Z,40.80
2023-02-16T13:53:10.175Z,40.80
2023-02-16T13:55:32.998Z,40.80
2023-02-16T13:57:50.522Z,40.80
2023-02-16T14:00:02.192Z,40.80
2023-02-16T14:02:12.178Z,40.80
2023-02-16T14:04:14.002Z,40.80
2023-02-16T14:06:42.856Z,40.80
2023-02-16T14:09:10.971Z,40.80
2023-02-16T14:11:12.984Z,40.90
2023-02-16T14:13:14.678Z,40.80
2023-02-16T14:15:20.994Z,40.80
2023-02-16T14:17:27.416Z,40.80
2023-02-16T14:19:29.101Z,40.80
2023-02-16T14:21:44.347Z,40.80
2023-02-16T14:23:55.165Z,40.80
2023-02-16T14:26:08.033Z,40.80
2023-02-16T14:28:21.816Z,40.80
2023-02-16T14:30:29.728Z,40.80
2023-02-16T14:32:38.410Z,40.80
2023-02-16T14:34:45.319Z,40.80
2023-02-16T14:37:14.704Z,40.70
2023-02-16T14:39:22.529Z,40.80
2023-02-16T14:41:30.974Z,40.80
2023-02-16T14:43:41.906Z,40.80
2023-02-16T14:46:14.641Z,40.80
2023-02-16T14:48:34.489Z,40.80
2023-02-16T14:50:55.662Z,40.80
2023-02-16T14:53:00.275Z,40.80
2023-02-16T14:55:17.972Z,40.70
2023-02-16T14:57:34.708Z,40.80
2023-02-16T14:59:47.858Z,40.70
2023-02-16T15:01:49.528Z,40.70
2023-02-16T15:03:56.555Z,40.70
2023-02-16T15:06:04.470Z,40.70
2023-02-16T15:08:23.501Z,40.70
2023-02-16T15:10:28.791Z,40.70
2023-02-16T15:12:32.689Z,40.60
2023-02-16T15:14:51.671Z,40.60
2023-02-16T15:16:54.914Z,40.60
2023-02-16T15:18:57.392Z,40.60
2023-02-16T15:20:59.472Z,40.60
2023-02-16T15:23:07.942Z,40.60
2023-02-16T15:25:25.617Z,40.60
2023-02-16T15:27:29.070Z,40.60
2023-02-16T15:29:31.347Z,40.40
2023-02-16T15:31:37.150Z,40.40
2023-02-16T15:33:42.505Z,40.30
2023-02-16T15:35:46.796Z,40.30
2023-02-16T15:37:48.487Z,40.30
2023-02-16T15:40:08.687Z,40.20
2023-02-16T15:42:14.781Z,39.90
2023-02-16T15:44:28.436Z,40.00
2023-02-16T15:46:33.934Z,40.10
2023-02-16T15:48:37.747Z,40.10
2023-02-16T15:50:39.494Z,40.10
2023-02-16T15:52:41.561Z,40.10
2023-02-16T15:54:45.366Z,40.10
2023-02-16T15:56:58.344Z,40.10
2023-02-16T15:59:02.932Z,40.40
2023-02-16T16:01:04.947Z,40.40
2023-02-16T16:03:09.787Z,40.40
2023-02-16T16:05:33.075Z,40.50
2023-02-16T16:07:39.744Z,40.40
2023-02-16T16:09:42.494Z,40.60
2023-02-16T16:11:44.352Z,40.80
2023-02-16T16:13:46.382Z,41.20
2023-02-16T16:15:50.170Z,40.50
2023-02-16T16:17:53.667Z,40.50
2023-02-16T16:19:56.731Z,40.50
2023-02-16T16:21:58.758Z,40.40
2023-02-16T16:24:03.483Z,40.40
2023-02-16T16:26:21.077Z,40.40
2023-02-16T16:28:28.738Z,40.50
2023-02-16T16:30:32.731Z,40.50
2023-02-16T16:32:34.481Z,40.60
2023-02-16T16:34:40.973Z,40.60
2023-02-16T16:36:56.963Z,40.60
2023-02-16T16:39:20.994Z,40.80
2023-02-16T16:41:27.668Z,40.90
2023-02-16T16:43:31.411Z,40.90
2023-02-16T16:45:42.592Z,40.90
2023-02-16T16:47:52.671Z,40.90
2023-02-16T16:50:26.045Z,40.90
2023-02-16T16:52:37.246Z,40.80
2023-02-16T16:54:40.481Z,38.70
2023-02-16T16:56:42.340Z,39.50
2023-02-16T16:58:47.601Z,40.00
2023-02-16T17:00:49.460Z,40.20
2023-02-16T17:02:51.217Z,40.20
2023-02-16T17:04:52.865Z,40.20
2023-02-16T17:06:54.533Z,40.20
2023-02-16T17:08:56.262Z,40.30
2023-02-16T17:10:57.899Z,40.30
2023-02-16T17:13:00.106Z,40.40
2023-02-16T17:15:03.164Z,40.40
2023-02-16T17:17:08.549Z,40.40
2023-02-16T17:19:16.127Z,40.40
2023-02-16T17:21:18.127Z,40.50
2023-02-16T17:23:21.809Z,40.60
2023-02-16T17:25:23.482Z,40.60
2023-02-16T17:27:25.123Z,40.60
2023-02-16T17:29:26.794Z,40.50
2023-02-16T17:31:28.561Z,40.50
2023-02-16T17:33:30.471Z,40.60
2023-02-16T17:35:32.596Z,40.50
2023-02-16T17:37:35.571Z,40.50
2023-02-16T17:39:37.268Z,40.60
2023-02-16T17:41:38.877Z,40.50
2023-02-16T17:43:40.534Z,40.50
2023-02-16T17:45:43.022Z,40.40
2023-02-16T17:47:45.543Z,40.40
2023-02-16T17:49:47.417Z,40.50
2023-02-16T17:51:49.043Z,40.20
2023-02-16T17:53:50.866Z,40.50
2023-02-16T17:55:55.731Z,40.40
2023-02-16T17:57:58.054Z,40.30
2023-02-16T17:59:59.933Z,40.30
2023-02-16T18:02:01.641Z,40.40
2023-02-16T18:04:04.074Z,40.40
2023-02-16T18:06:06.343Z,40.40
2023-02-16T18:08:08.234Z,40.10
2023-02-16T18:10:16.766Z,40.40
2023-02-16T18:12:18.620Z,40.30
2023-02-16T18:14:20.270Z,40.40
2023-02-16T18:16:26.555Z,40.50
2023-02-16T18:18:28.334Z,40.70
2023-02-16T18:20:30.002Z,40.80
2023-02-16T18:22:32.336Z,40.70
2023-02-16T18:24:33.996Z,41.40
2023-02-16T18:26:35.892Z,41.30
2023-02-16T18:28:37.495Z,40.90
2023-02-16T18:30:39.229Z,41.10
2023-02-16T18:32:41.890Z,41.80
2023-02-16T18:34:43.666Z,42.00
2023-02-16T18:36:45.280Z,41.30
2023-02-16T18:38:47.050Z,41.50
2023-02-16T18:40:49.863Z,41.80
2023-02-16T18:42:51.528Z,41.90
2023-02-16T18:44:53.259Z,42.00
2023-02-16T18:46:54.934Z,41.40
2023-02-16T18:48:56.606Z,42.50
2023-02-16T18:50:58.449Z,41.60
2023-02-16T18:53:00.139Z,42.30
2023-02-16T18:55:01.820Z,42.80
2023-02-16T18:57:03.641Z,42.50
2023-02-16T18:59:05.266Z,42.50
2023-02-16T19:01:25.312Z,42.50
2023-02-16T19:03:29.816Z,42.70
2023-02-16T19:05:32.418Z,42.50
2023-02-16T19:07:34.125Z,42.70
2023-02-16T19:09:35.787Z,42.70
2023-02-16T19:11:37.519Z,43.40
2023-02-16T19:13:39.119Z,42.90
2023-02-16T19:15:40.780Z,42.90
2023-02-16T19:17:42.580Z,43.00
2023-02-16T19:19:44.760Z,43.10
2023-02-16T19:21:46.367Z,43.10
2023-02-16T19:23:48.098Z,43.20
2023-02-16T19:25:49.852Z,43.20
2023-02-16T19:27:51.513Z,43.20
2023-02-16T19:29:53.240Z,43.90
2023-02-16T19:31:55.136Z,43.30
2023-02-16T19:33:59.250Z,43.30
2023-02-16T19:36:08.418Z,43.90
2023-02-16T19:38:10.165Z,43.10
2023-02-16T19:40:12.540Z,43.40
2023-02-16T19:42:15.078Z,44.00
2023-02-16T19:44:17.241Z,43.30
2023-02-16T19:46:19.541Z,43.20
2023-02-16T19:48:21.242Z,43.30
2023-02-16T19:50:23.007Z,43.20
2023-02-16T19:52:24.715Z,43.10
2023-02-16T19:54:26.349Z,42.90
2023-02-16T19:56:28.050Z,43.00
2023-02-16T19:58:29.697Z,43.30
2023-02-16T20:00:31.352Z,43.70
2023-02-16T20:02:33.046Z,43.80
2023-02-16T20:04:34.717Z,43.60
2023-02-16T20:06:41.740Z,43.40
2023-02-16T20:08:44.670Z,43.00
2023-02-16T20:10:46.294Z,43.10
2023-02-16T20:12:48.024Z,43.20
2023-02-16T20:14:49.635Z,43.20
2023-02-16T20:16:51.852Z,43.20
2023-02-16T20:18:54.408Z,43.10
2023-02-16T20:21:04.920Z,43.10
2023-02-16T20:23:08.561Z,43.00
2023-02-16T20:25:10.771Z,42.90
2023-02-16T20:27:12.984Z,42.90
2023-02-16T20:29:16.237Z,43.00
2023-02-16T20:31:23.057Z,43.00
2023-02-16T20:33:24.784Z,43.40
2023-02-16T20:35:26.543Z,41.10
2023-02-16T20:37:28.229Z,42.20
2023-02-16T20:39:29.978Z,42.90
2023-02-16T20:41:31.693Z,43.10
2023-02-16T20:43:34.008Z,43.30
2023-02-16T20:45:41.129Z,43.20
2023-02-16T20:47:42.941Z,43.40
2023-02-16T20:49:44.599Z,43.20
2023-02-16T20:51:46.289Z,43.10
2023-02-16T20:53:48.247Z,43.00
2023-02-16T20:55:50.385Z,42.90
2023-02-16T20:57:52.019Z,43.10
2023-02-16T20:59:54.437Z,42.90
2023-02-16T21:01:56.235Z,43.00
2023-02-16T21:03:59.198Z,43.00
2023-02-16T21:06:00.827Z,42.90
2023-02-16T21:08:02.472Z,42.90
2023-02-16T21:10:06.591Z,43.00
2023-02-16T21:12:08.212Z,42.80
2023-02-16T21:14:12.092Z,42.90
2023-02-16T21:16:14.751Z,42.60
2023-02-16T21:18:16.440Z,42.70
2023-02-16T21:20:18.048Z,42.70
2023-02-16T21:22:19.773Z,42.70
2023-02-16T21:24:21.474Z,42.60
2023-02-16T21:26:25.617Z,42.50
2023-02-16T21:28:28.139Z,42.60
2023-02-16T21:30:30.138Z,42.60
2023-02-16T21:32:31.853Z,42.50
2023-02-16T21:34:33.508Z,42.50
2023-02-16T21:36:35.572Z,42.60
2023-02-16T21:38:38.148Z,43.40
2023-02-16T21:40:58.639Z,42.70
2023-02-16T21:43:00.294Z,42.60
2023-02-16T21:45:14.172Z,42.60
2023-02-16T21:47:35.405Z,42.60
2023-02-16T21:49:37.108Z,42.60
2023-02-16T21:51:40.515Z,42.50
2023-02-16T21:53:42.223Z,42.60
2023-02-16T21:56:02.569Z,42.40
2023-02-16T21:58:07.764Z,42.40
2023-02-16T22:00:13.839Z,42.40
2023-02-16T22:02:15.489Z,42.50
2023-02-16T22:04:20.961Z,42.50
2023-02-16T22:06:24.700Z,42.60
2023-02-16T22:08:26.363Z,42.60
2023-02-16T22:10:30.338Z,42.60
2023-02-16T22:12:31.969Z,42.70
2023-02-16T22:14:33.807Z,42.70
2023-02-16T22:16:37.007Z,42.90
2023-02-16T22:18:38.918Z,42.80
2023-02-16T22:20:40.526Z,42.90
2023-02-16T22:22:43.425Z,43.00
2023-02-16T22:24:45.017Z,43.00
2023-02-16T22:26:49.178Z,43.00
2023-02-16T22:28:51.182Z,43.00
2023-02-16T22:30:52.990Z,43.10
2023-02-16T22:32:54.706Z,43.20
2023-02-16T22:34:56.364Z,43.10
2023-02-16T22:36:58.024Z,43.00
2023-02-16T22:38:59.738Z,43.10
2023-02-16T22:41:05.729Z,43.00
2023-02-16T22:43:07.470Z,43.10
2023-02-16T22:45:09.670Z,43.00
2023-02-16T22:47:11.340Z,43.00
2023-02-16T22:49:12.976Z,43.00
2023-02-16T22:51:16.000Z,43.00
2023-02-16T22:53:17.638Z,43.10
2023-02-16T22:55:19.251Z,43.00
2023-02-16T22:57:20.899Z,43.00
2023-02-16T22:59:22.708Z,43.10
2023-02-16T23:01:26.412Z,43.10
2023-02-16T23:03:29.865Z,43.00
2023-02-16T23:05:31.694Z,43.10
2023-02-16T23:07:34.697Z,43.10
2023-02-16T23:09:36.341Z,43.00
2023-02-16T23:11:38.386Z,43.10
2023-02-16T23:13:40.204Z,43.20
2023-02-16T23:15:41.844Z,43.20
2023-02-16T23:17:43.456Z,43.10
2023-02-16T23:19:45.091Z,43.20
2023-02-16T23:21:47.340Z,43.10
2023-02-16T23:23:50.330Z,43.20
2023-02-16T23:25:52.137Z,43.20
2023-02-16T23:27:54.095Z,43.20
2023-02-16T23:29:55.765Z,43.20
2023-02-16T23:31:57.452Z,43.20
2023-02-16T23:34:01.136Z,43.20
2023-02-16T23:36:04.332Z,43.20
2023-02-16T23:38:08.196Z,43.20
2023-02-16T23:40:10.245Z,43.20
2023-02-16T23:42:11.817Z,43.20
2023-02-16T23:44:14.225Z,43.20
2023-02-16T23:46:15.857Z,43.30
2023-02-16T23:48:17.700Z,43.20
2023-02-16T23:50:19.610Z,43.20
2023-02-16T23:52:21.269Z,43.20
2023-02-16T23:54:22.904Z,43.20
2023-02-16T23:56:27.516Z,43.20
2023-02-16T23:58:36.214Z,43.20
